Airfield :
LOGIN :

Register | Disclaimer

   EN    FR    IT 

 










Legend :    VFR   Marginal VFR   IFR   Intensive IFR   Very Intensive IFR
Visi :
Ceiling :
>= 8 km
>= 3000ft
5 to 8 km
1000 to 3000 ft
1500m to 5 km
500 to 1000 ft
800 to 1500m
200 to 500 ft
< 800m
< 200 ft
Symbols :   Thunderstorms  Fog  Heavy snow  Heavy precipitations  Wind > 20 kt
SIGMETs :     Misc.  Thunderstorms  Icing  Turbulence  Mountain Waves  Volcanic Ashes






- Airport Elevation : 233 ft
- IATA code : REU


LERS - Reus Tarragona

CURRENT METAR :
  • 141100Z 13006KT 070V200 9999 FEW025 25/19 Q1015

EXPIRED METARs :
  • 141030Z 15005KT 110V230 9999 SCT024 25/18 Q1016
  • 141000Z 14005KT 070V210 9999 SCT023 25/19 Q1016
  • 140930Z VRB05KT 9999 FEW018 BKN027 24/18 Q1016
  • 140900Z 16005KT 120V210 9999 FEW015 BKN028 23/18 Q1016
  • 140830Z 18004KT 120V250 9999 SCT015 BKN027 23/19 Q1016
  • 140800Z 19004KT 130V260 9999 SCT014 BKN025 22/19 Q1016
  • 140730Z 17005KT 120V210 9999 SCT011 BKN026 22/19 Q1016
  • 140700Z 19004KT 140V230 9999 FEW015 BKN025 22/19 Q1016
  • 140630Z 18004KT 140V230 9999 FEW010 BKN027 22/19 Q1016

TAF TAF LERS
Valid from the 14 at 09:00 until the 15 at 09:00 UTC


140800Z 1409/1509 VRB03KT 9999 FEW030 TX26/1413Z TN17/1505Z
TEMPO 1409/1411 BKN012
BECMG 1411/1413 12008KT
BECMG 1417/1420 VRB03KT
PROB30
TEMPO 1422/1508 3000 BR BKN012
BECMG 1507/1509 12008KT



MET'MAP, your aeronautical weather chart ! - Copyright ORBIFLY December 2007 - Disclaimer

ORBIFLY MET'MAP TEAM :

Programming & Development : Alexandra Zaïnal
Original concept : Baudouin d'Aumeries
Technical & hardware support : Manuel Goepfert
Assistance : Marc-Olivier Méhu




SOURCES & CREDITS :

   NOAA